map of AIK home
AIK - Airport
Location
City:  Aiken, South Carolina, United States
Name:Aiken Municipal Airport
ICAO:KAIK
IATA:AIK
FAA LID:AIK

Details
Type:Airport (Airfield)
Use:Public/Civil
Latitude:3338'58"N (33.649389)
Longitude:8141'06"W (-81.685027)
Datum:WGS 1984
Elevation:528 ft (161 m)
Variation:6.95W (WMM2015 magnetic declination)
-0.07 annual change
Runways:2
Longest:5500 × 100 ft (1676 × 30.5 m), paved

Time
Time Zone:UTC-5 (DST-4)
Local Time:

Weather
METAR:KAIK 150035Z AUTO 20005KT 10SM CLR 08/01 A2998 RMK AO2

Related Locations
Nearby:
Farthest:MQZ: 11479 mi / 18474 km
Margaret River [Margaret River Airport], WA, AU

Find:

   beyond  
but within

Other Information
Maps:
NOTAMs:
Links:
Sources:

  
flag of United States
flag of South Carolina
  

Sectional Chart

Flight Planning
at skyvector.com

Satellite Image

Google Maps Satellite view

 

Copyright © 2004-2017 Karl L. Swartz. All rights reserved.
The Great Circle Mapper name and logo are trademarks of the Great Circle Mapper.
All other trademarks mentioned herein belong to their respective owners.
Please see credits for attibutions and further copyright information.

  Follow gcmap on Facebook Follow gcmap on Twitter Follow gcmap on Google+ GCmap on LinkedIn

hCard Microformat

Geo Microformat